Time;durP1;ratioP1;P1;durP2;ratioP2;P2;SDS_P1;SDS_P2;PMS_P1;PMS_P2;Temp;Humidity;BMP_temperature;BMP_pressure;BME280_temperature;BME280_humidity;BME280_pressure;Samples;Min_cycle;Max_cycle;Signal;HPM_P1;HPM_P2
2022/12/12 00:01:37;;;;;;;1.50;1.17;;;19.00;53.40;;;;;;6272057;28;20040;-70
2022/12/12 00:04:37;;;;;;;1.30;1.02;;;19.00;53.50;;;;;;6270964;28;20086;-70
2022/12/12 00:07:38;;;;;;;1.75;1.30;;;19.00;53.40;;;;;;6270491;28;20398;-70
2022/12/12 00:10:39;;;;;;;1.50;1.02;;;19.00;53.40;;;;;;6270421;28;20673;-70
2022/12/12 00:13:40;;;;;;;2.33;1.42;;;19.00;53.50;;;;;;6270376;28;20643;-70
2022/12/12 00:16:41;;;;;;;1.58;1.05;;;19.00;53.40;;;;;;6271985;28;20025;-70
2022/12/12 00:19:42;;;;;;;1.50;1.33;;;19.00;53.50;;;;;;6271476;28;20082;-70
2022/12/12 00:22:43;;;;;;;1.70;1.13;;;19.00;53.50;;;;;;6271520;28;20607;-70
2022/12/12 00:25:43;;;;;;;1.60;1.20;;;18.90;53.40;;;;;;6271241;28;20025;-70
2022/12/12 00:28:44;;;;;;;1.58;1.17;;;19.00;53.50;;;;;;6271720;28;20021;-69
2022/12/12 00:31:45;;;;;;;1.88;1.20;;;18.90;53.40;;;;;;6270049;28;20033;-71
2022/12/12 00:34:46;;;;;;;2.63;1.38;;;19.00;53.40;;;;;;6271210;28;20390;-70
2022/12/12 00:37:46;;;;;;;1.27;0.93;;;18.90;53.40;;;;;;6270161;28;20031;-70
2022/12/12 00:40:48;;;;;;;2.70;1.35;;;19.00;53.50;;;;;;6271002;28;20386;-70
2022/12/12 00:43:50;;;;;;;1.58;1.25;;;19.00;53.50;;;;;;6270577;28;20514;-70
2022/12/12 00:46:50;;;;;;;1.42;0.90;;;19.00;53.50;;;;;;6269907;28;20025;-71
2022/12/12 00:49:51;;;;;;;1.50;1.20;;;19.00;53.50;;;;;;6269181;28;20067;-70
2022/12/12 00:52:51;;;;;;;1.75;1.15;;;19.00;54.20;;;;;;6269687;28;20437;-70
2022/12/12 00:55:58;;;;;;;1.70;1.27;;;19.00;53.50;;;;;;6270483;28;20410;-70
2022/12/12 00:59:02;;;;;;;1.40;1.15;;;18.90;53.40;;;;;;6269576;28;20502;-70
2022/12/12 01:02:03;;;;;;;1.77;1.20;;;19.00;53.50;;;;;;6270391;28;20017;-70
2022/12/12 01:05:04;;;;;;;1.50;1.13;;;18.90;53.40;;;;;;6269438;28;20079;-70
2022/12/12 01:08:04;;;;;;;1.10;0.90;;;19.00;53.50;;;;;;6270672;28;20101;-70
2022/12/12 01:11:06;;;;;;;2.45;1.50;;;19.00;53.50;;;;;;6270205;28;20017;-70
2022/12/12 01:14:07;;;;;;;1.40;1.20;;;19.00;53.50;;;;;;6270434;28;20017;-70
2022/12/12 01:17:07;;;;;;;2.28;1.48;;;19.00;53.40;;;;;;6270397;28;20474;-69
2022/12/12 01:20:19;;;;;;;1.25;1.08;;;19.00;53.40;;;;;;6270100;28;20036;-70
2022/12/12 01:23:20;;;;;;;1.67;1.20;;;19.00;53.50;;;;;;6269876;28;20371;-70
2022/12/12 01:26:23;;;;;;;1.45;1.20;;;19.00;53.40;;;;;;6270254;28;20057;-70
2022/12/12 01:29:24;;;;;;;1.67;1.20;;;19.00;53.50;;;;;;6270135;28;20036;-70
2022/12/12 01:32:24;;;;;;;2.05;1.40;;;19.00;53.50;;;;;;6270095;28;20021;-70
2022/12/12 01:35:25;;;;;;;1.55;1.30;;;19.00;53.40;;;;;;6268621;28;20032;-71
2022/12/12 01:38:26;;;;;;;1.48;1.17;;;19.00;53.50;;;;;;6268803;28;20032;-70
2022/12/12 01:41:27;;;;;;;1.63;1.25;;;19.00;53.40;;;;;;6269508;28;20021;-70
2022/12/12 01:44:46;;;;;;;1.70;1.27;;;19.00;53.40;;;;;;6269630;28;20033;-70
2022/12/12 01:47:47;;;;;;;1.65;1.13;;;18.90;53.40;;;;;;6268160;28;20029;-70
2022/12/12 01:50:49;;;;;;;1.67;1.20;;;19.00;53.50;;;;;;6269264;28;20017;-70
2022/12/12 01:53:55;;;;;;;1.50;1.30;;;19.00;53.60;;;;;;6269349;28;20036;-70
2022/12/12 01:56:59;;;;;;;2.53;1.33;;;19.00;53.40;;;;;;6268885;28;20084;-70
2022/12/12 02:00:03;;;;;;;1.40;1.30;;;19.00;53.50;;;;;;6268439;28;20485;-71
2022/12/12 02:03:04;;;;;;;1.17;0.93;;;19.00;53.50;;;;;;6269058;28;20432;-70
2022/12/12 02:06:12;;;;;;;1.55;1.27;;;19.00;53.40;;;;;;6267791;28;20025;-70
2022/12/12 02:09:15;;;;;;;1.10;1.00;;;19.00;54.20;;;;;;6268919;28;20435;-70
2022/12/12 02:12:16;;;;;;;1.20;1.00;;;19.00;53.50;;;;;;6268654;28;20115;-70
2022/12/12 02:15:16;;;;;;;1.52;1.20;;;19.00;53.50;;;;;;6268912;28;20035;-71
2022/12/12 02:18:25;;;;;;;1.48;1.27;;;19.00;53.50;;;;;;6268997;28;20399;-70
2022/12/12 02:21:54;;;;;;;1.42;1.00;;;19.00;53.50;;;;;;6268755;28;20029;-70
2022/12/12 02:25:18;;;;;;;2.00;1.20;;;19.00;53.50;;;;;;6268303;28;20028;-70
2022/12/12 02:28:51;;;;;;;1.27;1.17;;;19.00;53.60;;;;;;6268754;28;20053;-70
2022/12/12 02:32:13;;;;;;;2.22;1.40;;;19.00;53.50;;;;;;6244916;28;20029;-70
2022/12/12 02:35:31;;;;;;;1.73;1.40;;;19.00;53.50;;;;;;6267145;28;20036;-69
2022/12/12 02:38:52;;;;;;;1.30;1.17;;;19.00;53.50;;;;;;6267320;28;20029;-70
2022/12/12 02:42:03;;;;;;;1.02;0.93;;;19.00;53.50;;;;;;6267291;28;20028;-70
2022/12/12 02:45:42;;;;;;;1.77;1.10;;;19.00;53.50;;;;;;6267044;28;20494;-70
2022/12/12 02:49:08;;;;;;;1.40;1.20;;;19.00;53.40;;;;;;6262981;28;20509;-70
2022/12/12 02:52:10;;;;;;;1.08;0.95;;;19.00;53.60;;;;;;6266803;28;20108;-70
2022/12/12 02:55:11;;;;;;;1.42;1.00;;;19.00;53.50;;;;;;6268011;28;20056;-70
2022/12/12 02:58:12;;;;;;;1.50;1.20;;;19.00;53.50;;;;;;6268210;28;20033;-70
2022/12/12 03:01:13;;;;;;;1.38;1.17;;;19.00;53.50;;;;;;6267164;28;20552;-70
2022/12/12 03:08:23;;;;;;;1.80;1.33;;;19.00;53.50;;;;;;6268304;28;20029;-70
2022/12/12 03:11:29;;;;;;;;;;;19.00;53.60;;;;;;6261010;28;20437;-70
2022/12/12 03:14:51;;;;;;;1.42;1.10;;;19.00;53.40;;;;;;6266665;28;19962;-70
2022/12/12 03:18:22;;;;;;;1.17;1.00;;;19.00;53.50;;;;;;6266753;28;20033;-70
2022/12/12 03:21:31;;;;;;;1.48;1.00;;;19.00;53.60;;;;;;6261498;28;20041;-70
2022/12/12 03:25:02;;;;;;;1.73;1.27;;;19.00;53.60;;;;;;6272076;28;20029;-70
2022/12/12 03:28:16;;;;;;;1.55;1.20;;;18.90;53.60;;;;;;6272686;28;20017;-70
2022/12/12 03:31:22;;;;;;;1.58;1.20;;;18.90;53.40;;;;;;6272029;28;20033;-70
2022/12/12 03:34:27;;;;;;;1.17;1.00;;;19.00;53.60;;;;;;6272470;28;20470;-70
2022/12/12 03:37:36;;;;;;;1.50;1.20;;;19.00;53.60;;;;;;6272614;28;20035;-70
2022/12/12 03:40:44;;;;;;;1.83;1.10;;;19.00;54.30;;;;;;6271080;28;20648;-70
2022/12/12 03:44:01;;;;;;;2.05;1.30;;;19.00;53.50;;;;;;6272263;28;20729;-70
2022/12/12 03:47:08;;;;;;;1.27;1.00;;;19.00;53.60;;;;;;6272314;28;20439;-70
2022/12/12 03:50:18;;;;;;;1.40;1.17;;;19.00;53.60;;;;;;6272293;28;20052;-70
2022/12/12 03:53:32;;;;;;;1.52;1.10;;;19.00;53.60;;;;;;6270759;28;20021;-70
2022/12/12 03:56:49;;;;;;;1.48;1.10;;;19.00;53.60;;;;;;6272101;28;20463;-70
2022/12/12 04:00:13;;;;;;;2.08;1.45;;;19.00;53.60;;;;;;6272253;28;20390;-70
2022/12/12 04:03:30;;;;;;;1.20;1.10;;;19.00;53.50;;;;;;6270810;28;20029;-70
2022/12/12 04:06:40;;;;;;;1.42;1.10;;;18.90;53.50;;;;;;6270444;28;20025;-70
2022/12/12 04:13:04;;;;;;;1.65;1.20;;;19.00;53.60;;;;;;6272300;28;20021;-70
2022/12/12 04:16:11;;;;;;;1.27;1.02;;;19.00;53.70;;;;;;6270221;28;20029;-70
2022/12/12 04:23:15;;;;;;;1.77;1.17;;;19.00;53.60;;;;;;6272131;28;20490;-70
2022/12/12 04:26:48;;;;;;;1.30;1.00;;;18.90;53.60;;;;;;6269913;28;20666;-70
2022/12/12 04:30:06;;;;;;;1.85;1.27;;;19.00;53.70;;;;;;6270314;28;20017;-70
2022/12/12 04:33:12;;;;;;;1.88;1.30;;;18.90;53.60;;;;;;6269998;28;20017;-70
2022/12/12 04:36:15;;;;;;;1.35;1.10;;;19.00;53.60;;;;;;6271557;28;20021;-70
2022/12/12 04:39:18;;;;;;;1.15;0.95;;;18.90;53.60;;;;;;6269797;28;20025;-71
2022/12/12 04:42:23;;;;;;;1.00;0.90;;;19.00;53.60;;;;;;6270061;28;20075;-70
2022/12/12 04:45:29;;;;;;;1.60;1.27;;;19.00;53.60;;;;;;6269892;28;20060;-71
2022/12/12 04:48:38;;;;;;;1.13;1.00;;;19.00;53.60;;;;;;6271273;28;20064;-70
2022/12/12 04:51:43;;;;;;;2.05;1.15;;;19.00;53.70;;;;;;6269943;28;20021;-70
2022/12/12 04:55:10;;;;;;;1.67;1.10;;;19.00;53.60;;;;;;6271009;28;20052;-70
2022/12/12 04:58:11;;;;;;;1.02;0.90;;;19.00;53.70;;;;;;6262732;28;20036;-70
2022/12/12 05:01:26;;;;;;;1.50;1.17;;;19.00;53.70;;;;;;6270777;28;20017;-70
2022/12/12 05:04:53;;;;;;;1.15;1.05;;;19.00;53.60;;;;;;6270658;28;20024;-70
2022/12/12 05:08:11;;;;;;;2.00;1.27;;;19.00;53.70;;;;;;6264413;28;20382;-70
2022/12/12 05:11:14;;;;;;;1.42;1.20;;;19.00;53.60;;;;;;6270320;28;20021;-70
2022/12/12 05:14:16;;;;;;;1.20;1.05;;;19.00;53.70;;;;;;6269463;28;20788;-70
2022/12/12 05:17:24;;;;;;;2.70;1.20;;;19.00;53.70;;;;;;6269195;28;20123;-71
2022/12/12 05:20:25;;;;;;;1.05;0.95;;;19.00;53.70;;;;;;6270304;28;20021;-70
2022/12/12 05:23:25;;;;;;;1.25;1.05;;;19.00;53.60;;;;;;6269882;28;20025;-69
2022/12/12 05:26:29;;;;;;;1.23;1.00;;;19.00;53.60;;;;;;6270408;28;20096;-70
2022/12/12 05:29:30;;;;;;;1.52;1.10;;;19.00;53.70;;;;;;6270049;28;20048;-70
2022/12/12 05:32:31;;;;;;;1.95;1.08;;;19.00;53.70;;;;;;6270294;28;20100;-70
2022/12/12 05:35:32;;;;;;;1.55;1.10;;;19.00;53.70;;;;;;6270121;28;20039;-70
2022/12/12 05:38:33;;;;;;;0.70;0.70;;;19.00;53.70;;;;;;6269914;28;20028;-70
2022/12/12 05:41:34;;;;;;;1.33;0.80;;;19.00;53.60;;;;;;6269634;28;20481;-70
2022/12/12 05:44:34;;;;;;;1.30;0.90;;;19.00;53.70;;;;;;6269615;28;20029;-70
2022/12/12 05:47:35;;;;;;;1.13;1.00;;;19.00;53.70;;;;;;6268938;28;20425;-70
2022/12/12 05:50:36;;;;;;;1.33;1.10;;;19.00;53.70;;;;;;6269924;28;20021;-70
2022/12/12 05:53:37;;;;;;;0.82;0.70;;;19.00;53.60;;;;;;6269313;28;20070;-70
2022/12/12 05:56:37;;;;;;;1.13;1.00;;;19.00;53.70;;;;;;6268620;28;20057;-71
2022/12/12 05:59:38;;;;;;;1.20;1.00;;;19.00;53.70;;;;;;6269218;28;20031;-70
2022/12/12 06:02:39;;;;;;;1.90;0.90;;;19.00;53.70;;;;;;6269232;28;20371;-70
2022/12/12 06:05:39;;;;;;;1.10;0.90;;;19.00;53.70;;;;;;6269400;28;20108;-70
2022/12/12 06:08:40;;;;;;;0.98;0.85;;;19.00;53.70;;;;;;6268143;28;20029;-70
2022/12/12 06:11:41;;;;;;;0.80;0.75;;;19.00;53.70;;;;;;6268834;28;20322;-70
2022/12/12 06:14:41;;;;;;;0.90;0.70;;;19.00;53.70;;;;;;6267949;28;20508;-70
2022/12/12 06:17:42;;;;;;;1.10;1.00;;;19.00;53.70;;;;;;6268806;28;20111;-70
2022/12/12 06:20:43;;;;;;;1.00;0.88;;;19.00;53.80;;;;;;6267534;28;20017;-70
2022/12/12 06:23:44;;;;;;;0.60;0.60;;;19.00;53.70;;;;;;6268895;28;20080;-70
2022/12/12 06:26:45;;;;;;;1.02;0.70;;;19.00;53.70;;;;;;6269017;28;20461;-70
2022/12/12 06:29:45;;;;;;;1.17;0.98;;;19.00;53.70;;;;;;6267382;28;20115;-70
2022/12/12 06:32:46;;;;;;;1.00;0.80;;;19.00;53.80;;;;;;6268632;28;20032;-70
2022/12/12 06:36:00;;;;;;;1.17;0.85;;;19.00;53.80;;;;;;6238592;28;20048;-70
2022/12/12 06:39:01;;;;;;;0.90;0.80;;;19.00;53.80;;;;;;6237844;28;20022;-70
2022/12/12 06:42:02;;;;;;;1.13;0.90;;;19.00;53.70;;;;;;6262636;28;20474;-69
2022/12/12 06:45:03;;;;;;;3.20;0.80;;;19.00;53.80;;;;;;6265310;28;20109;-70
2022/12/12 06:48:05;;;;;;;0.93;0.80;;;19.00;53.70;;;;;;6242594;28;20040;-70
2022/12/12 06:51:08;;;;;;;1.48;0.88;;;19.00;53.80;;;;;;6249613;28;20500;-69
2022/12/12 06:54:14;;;;;;;3.22;0.80;;;19.00;53.70;;;;;;6241537;28;20025;-70
2022/12/12 06:57:15;;;;;;;1.60;0.90;;;19.00;54.40;;;;;;6245624;28;20057;-69
2022/12/12 07:00:16;;;;;;;0.95;0.82;;;19.00;53.80;;;;;;6250362;28;20033;-70
2022/12/12 07:03:17;;;;;;;0.88;0.80;;;19.00;53.80;;;;;;6275942;28;20082;-70
2022/12/12 07:06:21;;;;;;;1.75;0.70;;;19.00;53.80;;;;;;6253776;28;20033;-70
2022/12/12 07:09:21;;;;;;;0.90;0.73;;;19.00;53.80;;;;;;6250223;28;20075;-70
2022/12/12 07:12:22;;;;;;;1.13;0.80;;;19.00;53.80;;;;;;6249768;28;20022;-70
2022/12/12 07:15:22;;;;;;;1.80;0.73;;;19.00;53.80;;;;;;6249423;28;20493;-70
2022/12/12 07:18:23;;;;;;;2.78;0.70;;;19.00;53.80;;;;;;6249953;28;20223;-70
2022/12/12 07:21:24;;;;;;;1.52;0.75;;;19.00;53.80;;;;;;6248101;28;20120;-70
2022/12/12 07:24:26;;;;;;;1.63;0.80;;;19.00;53.80;;;;;;6249638;28;20442;-69
2022/12/12 07:27:26;;;;;;;0.65;0.60;;;19.00;53.90;;;;;;6266231;28;20025;-70
2022/12/12 07:30:27;;;;;;;0.60;0.60;;;19.00;53.80;;;;;;6240027;28;20028;-69
2022/12/12 07:33:28;;;;;;;0.88;0.77;;;19.00;53.80;;;;;;6247476;28;20478;-70
2022/12/12 07:36:28;;;;;;;3.58;0.65;;;19.00;53.90;;;;;;6256561;28;20032;-70
2022/12/12 07:39:31;;;;;;;2.15;0.77;;;19.00;53.80;;;;;;6259983;28;20414;-70
2022/12/12 07:42:32;;;;;;;1.30;0.80;;;19.00;53.80;;;;;;6247760;28;20037;-70
2022/12/12 07:45:32;;;;;;;0.70;0.63;;;19.00;53.80;;;;;;6248969;28;20092;-69
2022/12/12 07:48:33;;;;;;;2.80;0.77;;;19.00;53.90;;;;;;6271348;28;20061;-69
2022/12/12 07:51:35;;;;;;;1.50;0.90;;;19.00;53.80;;;;;;6248712;28;20025;-69
2022/12/12 07:54:35;;;;;;;1.20;0.75;;;19.00;53.90;;;;;;6248297;28;20046;-69
2022/12/12 07:57:37;;;;;;;0.60;0.60;;;19.00;53.90;;;;;;6248900;28;20364;-70
2022/12/12 08:00:38;;;;;;;1.00;0.80;;;19.00;53.90;;;;;;6248551;28;20017;-70
2022/12/12 08:03:39;;;;;;;1.13;0.70;;;19.00;53.90;;;;;;6249149;28;20501;-70
2022/12/12 08:06:39;;;;;;;1.63;0.77;;;19.00;53.80;;;;;;6248921;28;20181;-70
2022/12/12 08:09:40;;;;;;;2.65;0.70;;;19.00;53.50;;;;;;6248389;28;20480;-69
2022/12/12 08:12:41;;;;;;;0.88;0.70;;;19.00;53.70;;;;;;6261863;28;20081;-70
2022/12/12 08:15:42;;;;;;;2.13;0.98;;;19.00;53.80;;;;;;6260987;28;20041;-69
2022/12/12 08:18:43;;;;;;;1.30;0.63;;;19.00;53.80;;;;;;6248770;28;20025;-69
2022/12/12 08:21:46;;;;;;;1.00;0.60;;;19.00;53.90;;;;;;6248576;28;20438;-70
2022/12/12 08:25:09;;;;;;;0.80;0.52;;;19.00;54.50;;;;;;6248219;28;20382;-70
2022/12/12 08:28:14;;;;;;;1.98;0.90;;;19.00;53.80;;;;;;6245833;28;20090;-70
2022/12/12 08:31:19;;;;;;;0.63;0.63;;;19.00;53.70;;;;;;6267922;28;20026;-69
2022/12/12 08:34:21;;;;;;;1.98;0.65;;;19.00;53.70;;;;;;6247178;28;20072;-70
2022/12/12 08:37:23;;;;;;;0.73;0.70;;;19.00;53.80;;;;;;6246820;28;20029;-70
2022/12/12 08:40:24;;;;;;;0.95;0.70;;;19.00;53.80;;;;;;6248122;28;20482;-70
2022/12/12 08:43:25;;;;;;;1.10;0.70;;;19.00;53.70;;;;;;6246563;28;20037;-70
2022/12/12 08:46:27;;;;;;;1.15;0.60;;;19.00;53.70;;;;;;6247499;28;20104;-69
2022/12/12 08:49:28;;;;;;;2.05;0.80;;;19.00;53.80;;;;;;6267886;28;20039;-70
2022/12/12 08:52:30;;;;;;;1.58;0.80;;;19.00;53.80;;;;;;6272360;28;20029;-69
2022/12/12 08:55:31;;;;;;;0.80;0.63;;;19.00;53.80;;;;;;6272415;28;20395;-70
2022/12/12 08:59:13;;;;;;;1.80;0.75;;;19.00;53.90;;;;;;6261550;28;20029;-69
2022/12/12 09:02:16;;;;;;;1.77;0.82;;;19.00;53.80;;;;;;6245822;28;20087;-70
2022/12/12 09:05:27;;;;;;;1.23;0.68;;;19.00;53.80;;;;;;6223073;28;20037;-69
2022/12/12 09:08:33;;;;;;;0.90;0.73;;;19.00;53.80;;;;;;6244405;28;20033;-69
2022/12/12 09:12:00;;;;;;;0.90;0.57;;;19.00;53.80;;;;;;6245767;28;20026;-69
2022/12/12 09:15:34;;;;;;;4.18;0.70;;;19.00;53.80;;;;;;6268459;28;20449;-69
2022/12/12 09:18:42;;;;;;;0.93;0.73;;;19.00;53.70;;;;;;6262389;28;20025;-70
2022/12/12 09:23:02;;;;;;;1.60;0.70;;;19.00;53.80;;;;;;6244392;28;20045;-70
2022/12/12 09:26:23;;;;;;;;;;;;;;;;;;;;;
2022/12/12 09:29:26;;;;;;;0.85;0.70;;;19.00;53.90;;;;;;6256657;28;20135;-70
2022/12/12 09:32:29;;;;;;;2.33;1.55;;;19.00;53.90;;;;;;6245779;28;20026;-70
2022/12/12 09:35:58;;;;;;;1.73;0.55;;;19.00;53.80;;;;;;6234340;28;20029;-70
2022/12/12 09:38:59;;;;;;;2.58;0.90;;;19.00;53.60;;;;;;6247316;28;20076;-70
2022/12/12 09:42:18;;;;;;;2.88;0.70;;;19.00;53.70;;;;;;6247596;28;20418;-72
2022/12/12 09:45:30;;;;;;;1.50;1.08;;;19.00;53.70;;;;;;6246023;28;20032;-70
2022/12/12 09:48:46;;;;;;;1.27;0.90;;;18.90;50.90;;;;;;6249023;28;20033;-70
2022/12/12 09:52:00;;;;;;;1.77;0.82;;;18.90;50.80;;;;;;6270932;28;20029;-70
2022/12/12 09:55:31;;;;;;;1.67;0.95;;;19.00;50.70;;;;;;6252782;28;20044;-70
2022/12/12 10:03:29;;;;;;;;;;;;;;;;;;;;;
2022/12/12 10:15:16;;;;;;;1.95;0.73;;;19.00;52.00;;;;;;6238790;28;20395;-70
2022/12/12 10:22:56;;;;;;;5.32;0.90;;;19.10;52.20;;;;;;6221879;28;20057;-70
2022/12/12 10:26:36;;;;;;;8.95;0.98;;;19.20;52.50;;;;;;6237559;28;20034;-71
2022/12/12 10:29:45;;;;;;;2.28;0.75;;;19.20;52.20;;;;;;6235838;28;20635;-71
2022/12/12 10:33:24;;;;;;;2.45;1.08;;;19.30;52.20;;;;;;6219305;28;20068;-70
2022/12/12 10:36:56;;;;;;;4.65;0.90;;;19.20;52.20;;;;;;6272549;28;20056;-70
2022/12/12 10:40:21;;;;;;;2.53;0.85;;;19.20;52.40;;;;;;6260740;28;20051;-70
2022/12/12 10:43:47;;;;;;;;;;;;;;;;;;;;;
2022/12/12 10:46:58;;;;;;;3.85;1.42;;;19.10;52.50;;;;;;6244548;28;20101;-70
2022/12/12 10:50:25;;;;;;;4.28;0.90;;;19.10;52.50;;;;;;6250234;28;20020;-69
2022/12/12 10:53:27;;;;;;;2.13;0.80;;;19.10;52.60;;;;;;6245402;28;20092;-69
2022/12/12 10:56:28;;;;;;;2.95;0.80;;;19.10;52.60;;;;;;6244210;28;20505;-69
2022/12/12 10:59:29;;;;;;;4.43;1.00;;;19.10;52.60;;;;;;6245129;28;20029;-69
2022/12/12 11:02:41;;;;;;;4.80;0.95;;;19.10;52.70;;;;;;6243552;28;20022;-69
2022/12/12 11:05:41;;;;;;;5.18;0.90;;;19.20;52.80;;;;;;6244600;28;20485;-70
2022/12/12 11:09:05;;;;;;;2.42;0.70;;;19.20;52.10;;;;;;6244559;28;20037;-70
2022/12/12 11:12:08;;;;;;;2.75;0.80;;;19.30;51.90;;;;;;6244881;28;20018;-70
2022/12/12 11:15:15;;;;;;;1.55;0.90;;;19.20;52.00;;;;;;6244157;28;20033;-69
2022/12/12 11:18:20;;;;;;;5.15;1.27;;;19.20;52.40;;;;;;6245335;28;20427;-70
2022/12/12 11:21:21;;;;;;;1999.90;669.40;;;19.30;52.90;;;;;;6243410;28;20068;-69
2022/12/12 11:24:26;;;;;;;1971.00;422.17;;;19.30;52.30;;;;;;6242676;28;20072;-70
2022/12/12 11:27:28;;;;;;;1999.90;580.38;;;19.30;52.90;;;;;;6265076;28;20024;-69
2022/12/12 11:30:35;;;;;;;1999.90;627.63;;;19.40;52.20;;;;;;6245065;28;20115;-70
2022/12/12 11:33:56;;;;;;;1995.60;576.67;;;19.40;52.00;;;;;;6243428;28;20018;-69
2022/12/12 11:36:58;;;;;;;1532.38;471.80;;;19.40;52.10;;;;;;6258670;28;20021;-69
2022/12/12 11:39:59;;;;;;;946.47;266.17;;;19.40;52.00;;;;;;6243460;28;20068;-69
2022/12/12 11:43:26;;;;;;;1204.20;369.02;;;19.30;52.60;;;;;;6242509;28;20053;-69
2022/12/12 11:46:32;;;;;;;1138.57;365.73;;;19.40;52.40;;;;;;6246747;28;20044;-69
2022/12/12 11:49:32;;;;;;;1072.72;344.40;;;19.40;52.60;;;;;;6247359;28;20030;-69
2022/12/12 11:52:33;;;;;;;974.50;314.13;;;19.30;52.60;;;;;;6247834;28;20490;-69
2022/12/12 11:55:48;;;;;;;925.92;297.38;;;19.30;52.60;;;;;;6247871;28;20077;-70
2022/12/12 11:59:00;;;;;;;869.17;280.75;;;19.30;52.70;;;;;;6248240;28;20117;-69
2022/12/12 12:02:24;;;;;;;791.85;263.77;;;19.30;52.70;;;;;;6247623;28;20018;-69
2022/12/12 12:05:38;;;;;;;796.22;252.15;;;19.30;52.80;;;;;;6256371;28;20053;-69
2022/12/12 12:08:56;;;;;;;720.28;231.73;;;19.20;52.70;;;;;;6248460;28;20382;-69
2022/12/12 12:12:09;;;;;;;659.10;212.63;;;19.20;52.80;;;;;;6242613;28;20064;-69
2022/12/12 12:15:28;;;;;;;663.75;212.90;;;19.20;52.70;;;;;;6247834;28;20027;-69
2022/12/12 12:18:50;;;;;;;609.95;199.23;;;19.20;52.70;;;;;;6270754;28;20025;-68
2022/12/12 12:22:13;;;;;;;607.65;191.32;;;19.20;52.80;;;;;;6272519;28;20025;-69
2022/12/12 12:25:22;;;;;;;574.55;174.85;;;19.20;52.80;;;;;;6263169;28;20486;-68
2022/12/12 12:28:37;;;;;;;553.20;170.98;;;19.20;52.80;;;;;;6262930;28;20048;-69
2022/12/12 12:32:10;;;;;;;527.20;161.10;;;19.20;52.80;;;;;;6241005;28;20021;-69
2022/12/12 12:35:16;;;;;;;512.47;156.43;;;19.20;52.90;;;;;;6202409;28;20440;-70
2022/12/12 12:38:36;;;;;;;476.45;149.50;;;19.20;52.80;;;;;;6243883;28;20060;-68
2022/12/12 12:42:03;;;;;;;458.60;142.35;;;19.20;52.90;;;;;;6272306;28;20025;-70
2022/12/12 12:45:23;;;;;;;454.60;141.60;;;19.20;52.90;;;;;;6266236;28;20383;-69
2022/12/12 12:48:29;;;;;;;433.70;139.23;;;19.20;52.90;;;;;;6242092;28;20044;-69
2022/12/12 12:51:41;;;;;;;447.35;135.25;;;19.20;52.80;;;;;;6247257;28;20402;-70
2022/12/12 12:54:46;;;;;;;408.15;131.63;;;19.20;52.80;;;;;;6246853;28;20095;-69
2022/12/12 12:57:49;;;;;;;399.90;128.35;;;19.20;52.90;;;;;;6245818;28;20029;-70
2022/12/12 13:00:59;;;;;;;376.63;124.60;;;19.20;52.90;;;;;;6245758;28;20063;-69
2022/12/12 13:04:22;;;;;;;351.70;117.25;;;19.20;52.90;;;;;;6247203;28;20025;-70
2022/12/12 13:07:41;;;;;;;358.13;116.55;;;19.20;52.90;;;;;;6240525;28;20026;-70
2022/12/12 13:10:48;;;;;;;325.60;112.18;;;19.20;53.00;;;;;;6247055;28;20021;-69
2022/12/12 13:13:53;;;;;;;329.60;110.53;;;19.20;53.00;;;;;;6246857;28;20026;-70
2022/12/12 13:16:54;;;;;;;;;;;19.20;53.00;;;;;;6247011;28;20394;-70
2022/12/12 13:19:56;;;;;;;303.33;105.05;;;19.20;52.90;;;;;;6244672;28;19959;-69
2022/12/12 13:23:22;;;;;;;309.25;103.93;;;19.20;52.90;;;;;;6254235;28;20484;-70
2022/12/12 13:26:38;;;;;;;300.55;99.88;;;19.20;52.90;;;;;;6271082;28;20033;-70
2022/12/12 13:29:47;;;;;;;271.70;96.57;;;19.10;52.80;;;;;;6248728;28;20394;-68
2022/12/12 13:33:11;;;;;;;280.08;94.35;;;19.20;52.90;;;;;;6251436;28;20026;-70
2022/12/12 13:36:35;;;;;;;267.02;90.82;;;19.10;52.80;;;;;;6269826;28;20390;-69
2022/12/12 13:39:37;;;;;;;254.65;88.75;;;19.20;52.80;;;;;;6249992;28;20504;-69
2022/12/12 13:42:52;;;;;;;247.13;85.72;;;19.20;52.80;;;;;;6248212;28;20036;-69
2022/12/12 13:45:53;;;;;;;239.20;84.73;;;19.20;52.90;;;;;;6270884;28;20065;-69
2022/12/12 13:49:06;;;;;;;228.15;82.75;;;19.20;52.90;;;;;;6258425;28;20021;-69
2022/12/12 13:52:26;;;;;;;223.88;79.65;;;19.20;53.00;;;;;;6244392;28;20088;-69
2022/12/12 13:55:27;;;;;;;216.02;76.75;;;19.10;52.90;;;;;;6269368;28;20520;-69
2022/12/12 13:58:33;;;;;;;205.18;74.93;;;19.10;52.80;;;;;;6247114;28;20037;-69
2022/12/12 14:01:39;;;;;;;205.48;77.30;;;19.10;52.90;;;;;;6261587;28;20112;-69
2022/12/12 14:04:40;;;;;;;192.13;72.82;;;19.10;52.90;;;;;;6246072;28;20760;-70
2022/12/12 14:07:58;;;;;;;195.65;72.00;;;19.10;52.90;;;;;;6241604;28;20033;-69
2022/12/12 14:11:04;;;;;;;178.35;67.78;;;19.10;52.90;;;;;;6222466;28;20037;-69
2022/12/12 14:14:15;;;;;;;180.23;67.47;;;19.10;52.90;;;;;;6243897;28;20108;-70
2022/12/12 14:17:21;;;;;;;166.38;62.92;;;19.10;53.00;;;;;;6244981;28;20052;-69
2022/12/12 14:20:42;;;;;;;183.18;67.32;;;19.10;53.00;;;;;;6242928;28;20057;-69
2022/12/12 14:23:45;;;;;;;171.27;67.22;;;19.10;53.10;;;;;;6244451;28;20371;-70
2022/12/12 14:26:47;;;;;;;175.48;66.88;;;19.10;53.20;;;;;;6244397;28;20021;-70
2022/12/12 14:29:47;;;;;;;163.40;63.90;;;19.10;53.20;;;;;;6243059;28;20025;-69
2022/12/12 14:33:16;;;;;;;166.25;65.00;;;19.10;53.20;;;;;;6244345;28;20025;-69
2022/12/12 14:36:48;;;;;;;157.50;62.53;;;19.10;53.20;;;;;;6244325;28;20450;-69
2022/12/12 14:40:13;;;;;;;164.05;62.00;;;19.10;53.10;;;;;;6233925;28;20112;-69
2022/12/12 14:43:17;;;;;;;159.02;59.22;;;19.20;53.20;;;;;;6242070;28;20033;-70
2022/12/12 14:46:18;;;;;;;148.25;57.80;;;19.10;53.10;;;;;;6242439;28;20490;-69
2022/12/12 14:49:19;;;;;;;141.35;57.85;;;19.10;53.10;;;;;;6243752;28;20028;-68
2022/12/12 14:52:22;;;;;;;138.15;55.92;;;19.10;53.10;;;;;;6241456;28;20045;-69
2022/12/12 14:55:23;;;;;;;144.50;54.13;;;19.10;53.10;;;;;;6254096;28;20074;-69
2022/12/12 14:58:27;;;;;;;118.75;50.22;;;19.10;53.10;;;;;;6251975;28;20461;-69
2022/12/12 15:01:33;;;;;;;128.60;54.00;;;19.10;53.10;;;;;;6253985;28;20036;-68
2022/12/12 15:04:37;;;;;;;123.95;50.13;;;19.10;53.10;;;;;;6244632;28;20097;-69
2022/12/12 15:07:38;;;;;;;112.20;49.50;;;19.10;53.10;;;;;;6244335;28;20055;-70
2022/12/12 15:10:39;;;;;;;114.15;46.65;;;19.10;53.10;;;;;;6246189;28;20028;-69
2022/12/12 15:13:53;;;;;;;110.28;46.33;;;19.10;53.10;;;;;;6243788;28;20462;-69
2022/12/12 15:17:06;;;;;;;109.35;45.65;;;19.10;53.20;;;;;;6243458;28;20021;-69
2022/12/12 15:20:13;;;;;;;106.82;44.70;;;19.10;53.10;;;;;;6253046;28;20021;-70
2022/12/12 15:23:18;;;;;;;112.80;44.83;;;19.10;53.10;;;;;;6261212;28;20021;-69
2022/12/12 15:26:25;;;;;;;70.10;31.50;;;19.10;53.10;;;;;;6248053;28;20036;-68
2022/12/12 15:29:28;;;;;;;101.68;42.55;;;19.10;53.10;;;;;;6247227;28;20025;-68
2022/12/12 15:32:29;;;;;;;92.05;40.55;;;19.10;53.10;;;;;;6247078;28;20022;-68
2022/12/12 15:35:30;;;;;;;94.75;39.80;;;19.10;53.10;;;;;;6248285;28;20064;-68
2022/12/12 15:38:32;;;;;;;95.57;39.53;;;19.10;53.10;;;;;;6253103;28;20444;-68
2022/12/12 15:41:35;;;;;;;82.95;37.03;;;19.10;53.10;;;;;;6259431;28;20109;-69
2022/12/12 15:44:35;;;;;;;94.03;38.17;;;19.10;53.10;;;;;;6246654;28;20033;-68
2022/12/12 15:47:36;;;;;;;87.45;37.13;;;19.10;53.10;;;;;;6269529;28;20025;-68
2022/12/12 15:50:43;;;;;;;84.78;36.45;;;19.10;53.10;;;;;;6268408;28;20048;-68
2022/12/12 15:53:51;;;;;;;77.10;35.53;;;19.10;53.10;;;;;;6247493;28;20568;-68
2022/12/12 15:56:52;;;;;;;85.20;35.20;;;19.10;53.10;;;;;;6248043;28;20591;-68
2022/12/12 15:59:56;;;;;;;69.15;33.20;;;19.10;53.10;;;;;;6246000;28;20033;-68
2022/12/12 16:03:08;;;;;;;77.32;33.53;;;19.10;53.10;;;;;;6266780;28;20029;-68
2022/12/12 16:06:16;;;;;;;75.85;33.38;;;19.10;53.10;;;;;;6247361;28;20720;-69
2022/12/12 16:09:22;;;;;;;69.63;31.17;;;19.10;53.00;;;;;;6246345;28;20029;-69
2022/12/12 16:12:58;;;;;;;73.90;31.58;;;19.10;53.10;;;;;;6247519;28;20025;-68
2022/12/12 16:15:59;;;;;;;;;;;19.10;53.10;;;;;;6236211;28;20041;-71
2022/12/12 16:19:01;;;;;;;61.30;29.77;;;19.10;53.10;;;;;;6247592;28;19905;-67
2022/12/12 16:22:05;;;;;;;66.10;29.00;;;19.10;53.00;;;;;;6247378;28;20029;-68
2022/12/12 16:25:25;;;;;;;64.03;30.30;;;19.10;53.00;;;;;;6245678;28;20022;-67
2022/12/12 16:28:28;;;;;;;58.25;27.80;;;19.10;53.00;;;;;;6246296;28;20029;-68
2022/12/12 16:31:29;;;;;;;58.70;27.75;;;19.10;53.00;;;;;;6246477;28;20026;-69
2022/12/12 16:34:29;;;;;;;51.25;24.83;;;19.10;52.90;;;;;;6246851;28;20044;-69
2022/12/12 16:37:31;;;;;;;65.20;26.17;;;19.10;52.90;;;;;;6257852;28;20072;-68
2022/12/12 16:40:32;;;;;;;52.35;25.17;;;19.10;52.90;;;;;;6249452;28;20103;-68